createdAt,value
2023-05-19T00:00:33.569Z,14.73
2023-05-19T00:01:37.790Z,14.67
2023-05-19T00:02:40.002Z,14.72
2023-05-19T00:03:52.749Z,14.72
2023-05-19T00:04:55.135Z,14.72
2023-05-19T00:07:01.458Z,14.75
2023-05-19T00:08:03.976Z,14.72
2023-05-19T00:09:07.735Z,14.75
2023-05-19T00:10:10.398Z,14.76
2023-05-19T00:11:12.326Z,14.75
2023-05-19T00:12:14.529Z,14.75
2023-05-19T00:13:16.559Z,14.76
2023-05-19T00:14:18.633Z,14.77
2023-05-19T00:15:20.710Z,14.75
2023-05-19T00:16:23.865Z,14.77
2023-05-19T00:17:26.062Z,14.79
2023-05-19T00:18:29.929Z,14.82
2023-05-19T00:19:32.509Z,14.77
2023-05-19T00:20:34.642Z,14.79
2023-05-19T00:21:38.351Z,14.80
2023-05-19T00:22:40.522Z,14.80
2023-05-19T00:23:42.487Z,14.81
2023-05-19T00:24:44.297Z,14.79
2023-05-19T00:25:46.071Z,14.76
2023-05-19T00:26:47.820Z,14.81
2023-05-19T00:27:49.607Z,14.82
2023-05-19T00:28:51.376Z,14.80
2023-05-19T00:29:53.157Z,14.72
2023-05-19T00:30:55.130Z,14.76
2023-05-19T00:31:56.936Z,14.76
2023-05-19T00:32:58.814Z,14.77
2023-05-19T00:34:01.038Z,14.73
2023-05-19T00:35:02.834Z,14.78
2023-05-19T00:36:05.932Z,14.75
2023-05-19T00:37:07.725Z,14.74
2023-05-19T00:38:09.472Z,14.76
2023-05-19T00:39:11.303Z,14.75
2023-05-19T00:40:13.445Z,14.72
2023-05-19T00:41:15.229Z,14.69
2023-05-19T00:42:17.092Z,14.73
2023-05-19T00:43:18.867Z,14.71
2023-05-19T00:44:20.629Z,14.69
2023-05-19T00:45:22.464Z,14.70
2023-05-19T00:46:24.459Z,14.70
2023-05-19T00:47:26.326Z,14.72
2023-05-19T00:48:28.217Z,14.70
2023-05-19T00:49:29.977Z,14.70
2023-05-19T00:50:32.135Z,14.69
2023-05-19T00:51:34.182Z,14.65
2023-05-19T00:52:36.041Z,14.67
2023-05-19T00:53:37.823Z,14.66
2023-05-19T00:54:39.632Z,14.65
2023-05-19T00:55:42.204Z,14.65
2023-05-19T00:56:44.049Z,14.62
2023-05-19T00:57:47.152Z,14.64
2023-05-19T00:58:51.599Z,14.68
2023-05-19T00:59:53.433Z,14.68
2023-05-19T01:01:03.120Z,14.68
2023-05-19T01:02:05.110Z,14.67
2023-05-19T01:03:13.388Z,14.67
2023-05-19T01:04:22.127Z,14.61
2023-05-19T01:05:23.988Z,14.64
2023-05-19T01:06:27.893Z,14.63
2023-05-19T01:07:30.266Z,14.63
2023-05-19T01:08:33.214Z,14.62
2023-05-19T01:09:35.069Z,14.63
2023-05-19T01:10:37.063Z,14.66
2023-05-19T01:11:38.854Z,14.66
2023-05-19T01:12:41.256Z,14.69
2023-05-19T01:13:43.913Z,14.68
2023-05-19T01:14:45.719Z,14.70
2023-05-19T01:16:21.539Z,14.69
2023-05-19T01:17:26.633Z,14.71
2023-05-19T01:18:51.069Z,14.73
2023-05-19T01:20:19.233Z,14.68
2023-05-19T01:21:44.545Z,14.70
2023-05-19T01:23:16.902Z,14.70
2023-05-19T01:24:46.932Z,14.67
2023-05-19T01:26:00.999Z,14.66
2023-05-19T01:27:08.769Z,14.68
2023-05-19T01:28:25.206Z,14.68
2023-05-19T01:30:08.814Z,14.70
2023-05-19T01:31:12.736Z,14.72
2023-05-19T01:32:19.923Z,14.68
2023-05-19T01:33:23.848Z,14.73
2023-05-19T01:34:27.508Z,14.74
2023-05-19T01:35:31.017Z,14.73
2023-05-19T01:36:33.929Z,14.76
2023-05-19T01:37:37.673Z,14.74
2023-05-19T01:38:40.327Z,14.76
2023-05-19T01:39:45.300Z,14.67
2023-05-19T01:40:49.694Z,14.77
2023-05-19T01:41:52.568Z,14.80
2023-05-19T01:42:57.692Z,14.77
2023-05-19T01:44:00.605Z,14.82
2023-05-19T01:45:03.351Z,14.80
2023-05-19T01:46:05.804Z,14.84
2023-05-19T01:47:08.158Z,14.83
2023-05-19T01:48:11.301Z,14.86
2023-05-19T01:49:13.780Z,14.88
2023-05-19T01:50:15.893Z,14.85
2023-05-19T01:51:17.636Z,14.84
2023-05-19T01:52:19.511Z,14.88
2023-05-19T01:53:21.367Z,14.89
2023-05-19T01:54:23.377Z,14.89
2023-05-19T01:55:25.794Z,14.88
2023-05-19T01:56:41.502Z,14.90
2023-05-19T01:58:17.290Z,14.90
2023-05-19T01:59:37.364Z,14.86
2023-05-19T02:00:58.822Z,14.88
2023-05-19T02:02:05.965Z,14.88
2023-05-19T02:03:07.742Z,14.89
2023-05-19T02:04:15.430Z,14.90
2023-05-19T02:05:38.453Z,14.90
2023-05-19T02:06:49.899Z,14.92
2023-05-19T02:08:00.525Z,14.93
2023-05-19T02:09:16.175Z,14.95
2023-05-19T02:10:28.227Z,14.90
2023-05-19T02:11:38.618Z,14.95
2023-05-19T02:12:41.600Z,14.95
2023-05-19T02:13:49.325Z,14.95
2023-05-19T02:15:13.469Z,14.95
2023-05-19T02:16:17.762Z,14.95
2023-05-19T02:17:20.998Z,14.92
2023-05-19T02:18:25.213Z,14.96
2023-05-19T02:19:34.051Z,14.99
2023-05-19T02:20:35.808Z,15.00
2023-05-19T02:21:37.553Z,14.98
2023-05-19T02:22:40.552Z,14.98
2023-05-19T02:23:42.322Z,15.00
2023-05-19T02:24:46.652Z,15.02
2023-05-19T02:25:48.789Z,15.02
2023-05-19T02:26:52.071Z,15.02
2023-05-19T02:27:54.947Z,15.02
2023-05-19T02:28:56.684Z,15.04
2023-05-19T02:29:58.465Z,15.08
2023-05-19T02:31:00.228Z,15.11
2023-05-19T02:32:02.354Z,15.11
2023-05-19T02:33:06.645Z,15.04
2023-05-19T02:34:08.848Z,15.07
2023-05-19T02:35:10.641Z,15.09
2023-05-19T02:36:14.588Z,15.08
2023-05-19T02:37:17.857Z,15.11
2023-05-19T02:38:19.601Z,15.12
2023-05-19T02:39:21.397Z,15.11
2023-05-19T02:40:23.414Z,15.11
2023-05-19T02:41:25.151Z,15.13
2023-05-19T02:42:26.900Z,15.09
2023-05-19T02:43:30.665Z,15.10
2023-05-19T02:44:32.451Z,15.13
2023-05-19T02:45:34.242Z,15.12
2023-05-19T02:46:36.404Z,15.10
2023-05-19T02:47:38.515Z,15.12
2023-05-19T02:48:40.268Z,15.12
2023-05-19T02:49:43.153Z,15.10
2023-05-19T02:50:44.980Z,15.11
2023-05-19T02:51:46.708Z,15.01
2023-05-19T02:52:48.443Z,15.09
2023-05-19T02:53:50.506Z,15.10
2023-05-19T02:54:52.279Z,15.09
2023-05-19T02:55:54.088Z,15.07
2023-05-19T02:56:56.009Z,15.05
2023-05-19T02:57:57.773Z,15.01
2023-05-19T02:58:59.692Z,15.03
2023-05-19T03:00:02.058Z,15.04
2023-05-19T03:01:04.418Z,15.06
2023-05-19T03:02:06.328Z,15.06
2023-05-19T03:03:10.487Z,15.09
2023-05-19T03:04:14.111Z,15.10
2023-05-19T03:05:15.933Z,15.06
2023-05-19T03:06:18.222Z,15.06
2023-05-19T03:07:25.308Z,15.05
2023-05-19T03:08:27.237Z,15.03
2023-05-19T03:09:29.008Z,15.07
2023-05-19T03:10:31.169Z,15.05
2023-05-19T03:11:33.186Z,14.99
2023-05-19T03:12:35.117Z,15.04
2023-05-19T03:13:36.858Z,15.04
2023-05-19T03:14:38.849Z,15.03
2023-05-19T03:15:42.626Z,15.02
2023-05-19T03:16:44.529Z,15.02
2023-05-19T03:17:46.401Z,15.02
2023-05-19T03:18:48.267Z,15.02
2023-05-19T03:19:51.311Z,15.01
2023-05-19T03:20:54.166Z,15.00
2023-05-19T03:21:56.641Z,15.03
2023-05-19T03:22:58.943Z,15.04
2023-05-19T03:24:01.397Z,15.02
2023-05-19T03:25:03.560Z,15.04
2023-05-19T03:26:05.574Z,15.06
2023-05-19T03:27:07.369Z,15.03
2023-05-19T03:28:09.106Z,14.97
2023-05-19T03:29:10.907Z,15.00
2023-05-19T03:30:13.257Z,15.03
2023-05-19T03:31:15.020Z,15.01
2023-05-19T03:32:16.849Z,14.98
2023-05-19T03:33:18.791Z,14.99
2023-05-19T03:34:22.537Z,15.01
2023-05-19T03:35:24.290Z,15.02
2023-05-19T03:36:32.146Z,14.86
2023-05-19T03:37:34.124Z,15.01
2023-05-19T03:38:36.044Z,15.03
2023-05-19T03:39:37.848Z,15.00
2023-05-19T03:40:39.622Z,15.04
2023-05-19T03:41:41.355Z,15.06
2023-05-19T03:42:43.080Z,15.03
2023-05-19T03:43:44.819Z,15.05
2023-05-19T03:44:46.723Z,15.07
2023-05-19T03:45:48.585Z,15.05
2023-05-19T03:46:50.411Z,15.07
2023-05-19T03:47:52.214Z,15.04
2023-05-19T03:48:53.977Z,15.05
2023-05-19T03:49:56.189Z,15.03
2023-05-19T03:50:58.213Z,15.04
2023-05-19T03:51:59.994Z,15.05
2023-05-19T03:53:01.705Z,15.05
2023-05-19T03:54:04.613Z,15.08
2023-05-19T03:55:07.233Z,15.07
2023-05-19T03:56:11.800Z,15.08
2023-05-19T03:57:14.743Z,15.07
2023-05-19T03:58:16.793Z,15.07
2023-05-19T03:59:18.562Z,15.10
2023-05-19T04:00:20.500Z,15.10
2023-05-19T04:01:22.470Z,15.12
2023-05-19T04:02:24.278Z,15.12
2023-05-19T04:03:26.395Z,15.09
2023-05-19T04:04:28.709Z,15.13
2023-05-19T04:05:30.512Z,15.13
2023-05-19T04:06:32.242Z,15.10
2023-05-19T04:07:34.114Z,15.13
2023-05-19T04:08:35.873Z,15.12
2023-05-19T04:09:37.796Z,15.18
2023-05-19T04:10:39.618Z,15.14
2023-05-19T04:11:42.590Z,15.22
2023-05-19T04:12:44.488Z,15.21
2023-05-19T04:13:46.251Z,15.24
2023-05-19T04:14:48.005Z,15.23
2023-05-19T04:15:49.956Z,15.21
2023-05-19T04:16:52.334Z,15.29
2023-05-19T04:17:54.245Z,15.30
2023-05-19T04:18:56.961Z,15.32
2023-05-19T04:19:58.751Z,15.31
2023-05-19T04:21:00.655Z,15.33
2023-05-19T04:22:02.438Z,15.33
2023-05-19T04:23:04.309Z,15.34
2023-05-19T04:24:06.754Z,15.27
2023-05-19T04:25:09.079Z,15.37
2023-05-19T04:26:10.836Z,15.36
2023-05-19T04:27:12.914Z,15.41
2023-05-19T04:28:18.124Z,15.42
2023-05-19T04:29:19.902Z,15.41
2023-05-19T04:30:22.776Z,15.41
2023-05-19T04:31:25.033Z,15.26
2023-05-19T04:32:26.982Z,15.44
2023-05-19T04:33:29.325Z,15.40
2023-05-19T04:34:31.044Z,15.46
2023-05-19T04:35:32.882Z,15.49
2023-05-19T04:36:34.641Z,15.49
2023-05-19T04:37:37.984Z,15.52
2023-05-19T04:38:40.153Z,15.59
2023-05-19T04:39:46.587Z,15.59
2023-05-19T04:40:50.473Z,15.62
2023-05-19T04:41:54.240Z,15.71
2023-05-19T04:42:56.007Z,15.87
2023-05-19T04:44:00.570Z,16.00
2023-05-19T04:45:05.486Z,16.17
2023-05-19T04:46:12.312Z,16.28
2023-05-19T04:47:15.567Z,16.38
2023-05-19T04:48:17.332Z,16.51
2023-05-19T04:49:19.580Z,16.59
2023-05-19T04:50:21.897Z,16.60
2023-05-19T04:51:29.843Z,16.65
2023-05-19T04:52:32.301Z,16.73
2023-05-19T04:53:34.082Z,16.76
2023-05-19T04:54:35.851Z,16.98
2023-05-19T04:55:38.845Z,17.12
2023-05-19T04:56:40.673Z,17.35
2023-05-19T04:57:42.919Z,17.49
2023-05-19T04:58:44.920Z,17.61
2023-05-19T04:59:46.754Z,17.75
2023-05-19T05:00:48.502Z,17.86
2023-05-19T05:01:50.412Z,17.94
2023-05-19T05:02:52.248Z,18.06
2023-05-19T05:03:55.433Z,18.25
2023-05-19T05:04:58.175Z,18.36
2023-05-19T05:06:02.810Z,18.44
2023-05-19T05:07:04.688Z,18.54
2023-05-19T05:08:07.228Z,18.66
2023-05-19T05:09:08.995Z,18.86
2023-05-19T05:10:10.998Z,19.04
2023-05-19T05:11:13.042Z,19.27
2023-05-19T05:12:15.816Z,19.37
2023-05-19T05:13:17.848Z,19.43
2023-05-19T05:14:19.878Z,19.51
2023-05-19T05:15:24.471Z,19.56
2023-05-19T05:16:26.829Z,19.51
2023-05-19T05:17:28.985Z,19.64
2023-05-19T05:18:31.095Z,19.80
2023-05-19T05:19:33.215Z,19.84
2023-05-19T05:20:35.330Z,19.99
2023-05-19T05:21:37.486Z,20.09
2023-05-19T05:22:39.617Z,20.28
2023-05-19T05:23:41.660Z,20.37
2023-05-19T05:24:43.738Z,20.43
2023-05-19T05:25:47.050Z,20.44
2023-05-19T05:26:49.066Z,20.34
2023-05-19T05:27:50.888Z,20.34
2023-05-19T05:28:52.700Z,20.29
2023-05-19T05:29:54.444Z,20.24
2023-05-19T05:30:57.501Z,20.27
2023-05-19T05:31:59.424Z,20.34
2023-05-19T05:33:02.223Z,20.31
2023-05-19T05:34:04.188Z,20.55
2023-05-19T05:35:06.539Z,20.64
2023-05-19T05:36:08.661Z,20.72
2023-05-19T05:37:11.376Z,20.72
2023-05-19T05:38:14.336Z,20.80
2023-05-19T05:39:16.222Z,20.95
2023-05-19T05:40:18.149Z,20.85
2023-05-19T05:41:19.941Z,20.96
2023-05-19T05:42:21.703Z,20.92
2023-05-19T05:43:23.500Z,20.79
2023-05-19T05:44:25.378Z,20.86
2023-05-19T05:45:27.201Z,21.00
2023-05-19T05:46:29.193Z,21.18
2023-05-19T05:47:31.388Z,21.43
2023-05-19T05:48:33.503Z,21.51
2023-05-19T05:49:39.282Z,21.53
2023-05-19T05:50:44.363Z,21.62
2023-05-19T05:51:57.877Z,21.86
2023-05-19T05:53:07.589Z,21.87
2023-05-19T05:54:12.373Z,22.08
2023-05-19T05:55:15.376Z,22.17
2023-05-19T05:56:17.465Z,22.22
2023-05-19T05:57:19.587Z,22.31
2023-05-19T05:58:21.417Z,22.23
2023-05-19T05:59:23.300Z,22.21
2023-05-19T06:00:25.235Z,22.34
2023-05-19T06:01:26.981Z,22.29
2023-05-19T06:02:30.155Z,22.34
2023-05-19T06:03:32.233Z,22.45
2023-05-19T06:04:34.104Z,22.61
2023-05-19T06:05:36.250Z,22.55
2023-05-19T06:06:38.288Z,22.55
2023-05-19T06:07:41.323Z,22.43
2023-05-19T06:08:43.116Z,22.51
2023-05-19T06:09:44.869Z,22.47
2023-05-19T06:10:47.472Z,22.50
2023-05-19T06:11:49.351Z,22.51
2023-05-19T06:12:51.094Z,22.63
2023-05-19T06:13:52.870Z,22.54
2023-05-19T06:14:54.715Z,22.53
2023-05-19T06:15:56.498Z,22.55
2023-05-19T06:16:58.350Z,22.57
2023-05-19T06:18:00.258Z,22.69
2023-05-19T06:19:02.299Z,22.77
2023-05-19T06:20:08.707Z,22.82
2023-05-19T06:21:10.625Z,22.84
2023-05-19T06:22:12.420Z,22.90
2023-05-19T06:23:14.232Z,23.02
2023-05-19T06:24:15.967Z,23.13
2023-05-19T06:25:17.906Z,23.20
2023-05-19T06:26:19.648Z,23.15
2023-05-19T06:27:21.449Z,23.13
2023-05-19T06:28:23.258Z,23.34
2023-05-19T06:29:25.088Z,23.38
2023-05-19T06:30:26.830Z,23.43
2023-05-19T06:31:29.058Z,23.41
2023-05-19T06:32:31.014Z,23.29
2023-05-19T06:33:32.791Z,23.09
2023-05-19T06:34:34.540Z,22.94
2023-05-19T06:35:36.307Z,22.78
2023-05-19T06:36:38.128Z,22.75
2023-05-19T06:37:39.951Z,22.56
2023-05-19T06:38:41.693Z,22.43
2023-05-19T06:39:43.456Z,22.44
2023-05-19T06:40:45.231Z,22.43
2023-05-19T06:41:48.329Z,22.35
2023-05-19T06:42:50.589Z,22.46
2023-05-19T06:43:52.634Z,22.51
2023-05-19T06:44:56.602Z,22.54
2023-05-19T06:45:58.851Z,22.74
2023-05-19T06:47:00.826Z,22.87
2023-05-19T06:48:03.098Z,22.99
2023-05-19T06:49:04.886Z,23.07
2023-05-19T06:50:06.953Z,23.12
2023-05-19T06:51:10.349Z,23.29
2023-05-19T06:52:12.456Z,23.63
2023-05-19T06:53:14.275Z,23.77
2023-05-19T06:54:16.425Z,23.76
2023-05-19T06:55:21.282Z,23.71
2023-05-19T06:56:23.262Z,23.55
2023-05-19T06:57:25.142Z,23.37
2023-05-19T06:58:27.334Z,23.22
2023-05-19T06:59:29.100Z,23.11
2023-05-19T07:00:30.978Z,23.06
2023-05-19T07:01:32.869Z,22.91
2023-05-19T07:02:34.661Z,22.84
2023-05-19T07:03:37.158Z,22.70
2023-05-19T07:04:39.993Z,22.54
2023-05-19T07:05:41.797Z,22.39
2023-05-19T07:06:43.578Z,22.35
2023-05-19T07:07:45.374Z,22.36
2023-05-19T07:08:47.146Z,22.37
2023-05-19T07:09:49.337Z,22.40
2023-05-19T07:10:51.105Z,22.41
2023-05-19T07:11:52.924Z,22.60
2023-05-19T07:12:54.684Z,22.76
2023-05-19T07:13:56.432Z,22.94
2023-05-19T07:14:58.184Z,23.09
2023-05-19T07:15:59.977Z,23.16
2023-05-19T07:17:01.865Z,23.16
2023-05-19T07:18:03.769Z,23.37
2023-05-19T07:19:05.711Z,23.42
2023-05-19T07:20:10.194Z,23.50
2023-05-19T07:21:12.043Z,23.63
2023-05-19T07:22:13.833Z,23.74
2023-05-19T07:23:17.263Z,23.77
2023-05-19T07:24:21.475Z,23.70
2023-05-19T07:25:23.299Z,23.68
2023-05-19T07:26:25.030Z,23.67
2023-05-19T07:27:26.908Z,23.66
2023-05-19T07:28:30.958Z,23.83
2023-05-19T07:29:32.709Z,24.08
2023-05-19T07:30:34.861Z,24.16
2023-05-19T07:31:37.203Z,24.25
2023-05-19T07:32:38.960Z,24.42
2023-05-19T07:33:43.849Z,24.54
2023-05-19T07:34:45.768Z,24.61
2023-05-19T07:35:47.950Z,24.75
2023-05-19T07:36:50.024Z,24.97
2023-05-19T07:37:52.659Z,25.22
2023-05-19T07:38:54.484Z,25.53
2023-05-19T07:39:56.272Z,25.75
2023-05-19T07:40:58.074Z,25.95
2023-05-19T07:41:59.955Z,25.98
2023-05-19T07:43:01.716Z,26.01
2023-05-19T07:44:07.987Z,25.91
2023-05-19T07:45:10.717Z,25.95
2023-05-19T07:46:12.552Z,26.10
2023-05-19T07:47:14.301Z,26.23
2023-05-19T07:48:18.784Z,26.29
2023-05-19T07:49:20.942Z,26.30
2023-05-19T07:50:22.770Z,26.48
2023-05-19T07:51:24.516Z,26.66
2023-05-19T07:52:26.941Z,26.76
2023-05-19T07:53:28.718Z,26.53
2023-05-19T07:54:30.481Z,26.50
2023-05-19T07:55:32.307Z,26.38
2023-05-19T07:56:34.093Z,26.06
2023-05-19T07:57:35.884Z,25.63
2023-05-19T07:58:37.624Z,25.42
2023-05-19T07:59:39.465Z,25.32
2023-05-19T08:00:46.351Z,25.11
2023-05-19T08:01:48.150Z,24.96
2023-05-19T08:02:50.019Z,24.73
2023-05-19T08:03:51.959Z,24.67
2023-05-19T08:04:54.340Z,24.66
2023-05-19T08:05:56.514Z,24.61
2023-05-19T08:06:58.370Z,24.76
2023-05-19T08:08:00.141Z,24.90
2023-05-19T08:09:02.064Z,25.10
2023-05-19T08:10:04.382Z,25.26
2023-05-19T08:11:06.779Z,25.31
2023-05-19T08:12:08.542Z,25.40
2023-05-19T08:13:10.608Z,25.46
2023-05-19T08:14:12.664Z,25.62
2023-05-19T08:15:14.470Z,25.71
2023-05-19T08:16:16.789Z,25.87
2023-05-19T08:17:18.660Z,25.95
2023-05-19T08:18:20.831Z,26.07
2023-05-19T08:19:22.776Z,26.31
2023-05-19T08:20:24.752Z,26.55
2023-05-19T08:21:26.497Z,26.70
2023-05-19T08:22:31.350Z,26.80
2023-05-19T08:23:33.746Z,26.95
2023-05-19T08:24:35.532Z,26.99
2023-05-19T08:25:37.287Z,27.30
2023-05-19T08:26:39.151Z,27.31
2023-05-19T08:27:40.885Z,27.31
2023-05-19T08:28:42.704Z,27.31
2023-05-19T08:29:44.600Z,27.26
2023-05-19T08:30:46.387Z,27.23
2023-05-19T08:31:48.252Z,27.36
2023-05-19T08:32:50.094Z,27.27
2023-05-19T08:33:52.367Z,27.09
2023-05-19T08:34:54.231Z,27.04
2023-05-19T08:35:58.269Z,27.04
2023-05-19T08:37:00.179Z,26.98
2023-05-19T08:38:01.920Z,27.10
2023-05-19T08:39:03.749Z,27.34
2023-05-19T08:40:06.522Z,27.45
2023-05-19T08:41:08.895Z,27.58
2023-05-19T08:42:11.624Z,27.56
2023-05-19T08:43:13.385Z,27.50
2023-05-19T08:44:16.589Z,27.55
2023-05-19T08:45:20.002Z,27.68
2023-05-19T08:46:25.124Z,27.78
2023-05-19T08:47:28.101Z,27.86
2023-05-19T08:48:31.421Z,27.96
2023-05-19T08:49:35.738Z,28.17
2023-05-19T08:50:42.121Z,28.40
2023-05-19T08:51:56.248Z,28.54
2023-05-19T08:53:31.385Z,28.72
2023-05-19T08:54:44.903Z,28.80
2023-05-19T08:56:13.758Z,28.84
2023-05-19T08:57:15.644Z,29.04
2023-05-19T08:58:20.527Z,29.09
2023-05-19T08:59:22.905Z,28.93
2023-05-19T09:00:25.762Z,28.60
2023-05-19T09:01:28.989Z,28.68
2023-05-19T09:02:31.072Z,28.76
2023-05-19T09:03:38.233Z,28.81
2023-05-19T09:04:42.129Z,28.98
2023-05-19T09:05:44.055Z,29.05
2023-05-19T09:06:45.910Z,29.21
2023-05-19T09:07:48.470Z,29.42
2023-05-19T09:08:50.265Z,29.57
2023-05-19T09:09:52.129Z,29.74
2023-05-19T09:10:53.876Z,29.88
2023-05-19T09:11:56.104Z,29.91
2023-05-19T09:12:57.912Z,30.08
2023-05-19T09:13:59.702Z,30.16
2023-05-19T09:15:02.855Z,30.29
2023-05-19T09:16:05.538Z,30.43
2023-05-19T09:17:07.480Z,30.60
2023-05-19T09:18:14.185Z,30.67
2023-05-19T09:19:16.225Z,30.71
2023-05-19T09:20:18.569Z,30.49
2023-05-19T09:21:20.649Z,30.55
2023-05-19T09:22:22.448Z,30.53
2023-05-19T09:23:25.067Z,30.40
2023-05-19T09:24:27.612Z,30.40
2023-05-19T09:25:29.376Z,30.42
2023-05-19T09:26:42.494Z,30.50
2023-05-19T09:27:44.235Z,30.63
2023-05-19T09:28:47.941Z,30.74
2023-05-19T09:29:51.037Z,30.93
2023-05-19T09:31:19.480Z,31.10
2023-05-19T09:32:28.654Z,31.23
2023-05-19T09:33:32.683Z,31.31
2023-05-19T09:34:34.458Z,31.41
2023-05-19T09:35:37.108Z,31.57
2023-05-19T09:36:41.570Z,31.69
2023-05-19T09:37:44.224Z,31.81
2023-05-19T09:38:46.402Z,31.86
2023-05-19T09:39:52.151Z,31.95
2023-05-19T09:40:59.795Z,32.09
2023-05-19T09:42:04.931Z,32.23
2023-05-19T09:43:08.709Z,32.43
2023-05-19T09:44:24.027Z,32.50
2023-05-19T09:45:27.437Z,32.69
2023-05-19T09:46:30.411Z,32.83
2023-05-19T09:47:41.536Z,32.78
2023-05-19T09:48:43.972Z,32.66
2023-05-19T09:49:48.548Z,32.62
2023-05-19T09:50:51.850Z,32.80
2023-05-19T09:51:57.255Z,32.90
2023-05-19T09:52:59.808Z,33.02
2023-05-19T09:54:01.648Z,33.15
2023-05-19T09:55:05.557Z,33.22
2023-05-19T09:56:08.965Z,33.33
2023-05-19T09:57:10.796Z,33.41
2023-05-19T09:58:18.198Z,33.51
2023-05-19T09:59:24.161Z,33.56
2023-05-19T10:00:27.370Z,33.65
2023-05-19T10:01:31.658Z,33.81
2023-05-19T10:02:33.672Z,33.81
2023-05-19T10:03:36.899Z,33.79
2023-05-19T10:04:39.002Z,33.69
2023-05-19T10:05:42.153Z,33.72
2023-05-19T10:06:44.637Z,33.54
2023-05-19T10:07:51.710Z,33.43
2023-05-19T10:08:57.283Z,33.29
2023-05-19T10:10:01.829Z,32.99
2023-05-19T10:11:03.670Z,32.74
2023-05-19T10:12:08.054Z,32.64
2023-05-19T10:13:10.555Z,32.59
2023-05-19T10:14:12.367Z,32.52
2023-05-19T10:15:15.712Z,32.45
2023-05-19T10:16:18.538Z,32.29
2023-05-19T10:17:21.492Z,32.14
2023-05-19T10:18:23.844Z,32.06
2023-05-19T10:19:29.811Z,31.90
2023-05-19T10:20:37.382Z,31.74
2023-05-19T10:21:40.598Z,31.86
2023-05-19T10:22:44.690Z,31.93
2023-05-19T10:23:46.503Z,31.92
2023-05-19T10:24:48.292Z,31.89
2023-05-19T10:25:53.753Z,31.81
2023-05-19T10:26:59.920Z,31.68
2023-05-19T10:28:07.999Z,31.59
2023-05-19T10:29:10.823Z,31.60
2023-05-19T10:30:20.736Z,31.60
2023-05-19T10:31:24.556Z,31.60
2023-05-19T10:32:31.193Z,31.79
2023-05-19T10:34:00.549Z,31.98
2023-05-19T10:35:28.715Z,32.09
2023-05-19T10:36:48.000Z,32.12
2023-05-19T10:38:17.204Z,31.88
2023-05-19T10:39:37.646Z,31.98
2023-05-19T10:40:52.661Z,32.12
2023-05-19T10:41:54.342Z,32.17
2023-05-19T10:43:14.254Z,32.24
2023-05-19T10:44:40.414Z,32.27
2023-05-19T10:45:49.520Z,32.42
2023-05-19T10:46:51.373Z,32.49
2023-05-19T10:47:54.750Z,32.49
2023-05-19T10:48:56.725Z,32.48
2023-05-19T10:50:01.222Z,32.35
2023-05-19T10:51:03.849Z,32.25
2023-05-19T10:52:20.339Z,32.18
2023-05-19T10:53:22.998Z,32.13
2023-05-19T10:54:43.617Z,32.05
2023-05-19T10:55:53.264Z,31.95
2023-05-19T10:56:58.064Z,31.87
2023-05-19T10:58:00.650Z,31.78
2023-05-19T10:59:03.653Z,31.59
2023-05-19T11:00:29.646Z,31.30
2023-05-19T11:01:33.789Z,30.75
2023-05-19T11:02:45.134Z,29.35
2023-05-19T11:03:55.059Z,28.16
2023-05-19T11:05:13.017Z,27.00
2023-05-19T11:06:41.422Z,24.64
2023-05-19T11:08:06.212Z,23.46
2023-05-19T11:09:17.432Z,21.86
2023-05-19T11:10:23.836Z,21.04
2023-05-19T11:11:26.944Z,20.30
2023-05-19T11:12:28.939Z,20.18
2023-05-19T11:13:31.473Z,19.98
2023-05-19T11:14:34.928Z,19.66
2023-05-19T11:15:37.500Z,19.33
2023-05-19T11:16:45.921Z,19.34
2023-05-19T11:17:50.652Z,19.23
2023-05-19T11:18:54.670Z,19.26
2023-05-19T11:19:57.853Z,19.18
2023-05-19T11:21:02.583Z,19.07
2023-05-19T11:22:12.733Z,19.17
2023-05-19T11:23:20.404Z,19.20
2023-05-19T11:24:44.659Z,19.47
2023-05-19T11:25:51.663Z,19.63
2023-05-19T11:26:54.950Z,19.52
2023-05-19T11:27:56.931Z,19.50
2023-05-19T11:28:58.730Z,19.45
2023-05-19T11:30:20.217Z,19.64
2023-05-19T11:31:23.209Z,19.75
2023-05-19T11:32:36.086Z,19.71
2023-05-19T11:33:38.131Z,19.79
2023-05-19T11:34:40.580Z,19.64
2023-05-19T11:35:43.780Z,19.75
2023-05-19T11:36:46.205Z,19.62
2023-05-19T11:37:50.714Z,19.60
2023-05-19T11:38:52.850Z,19.43
2023-05-19T11:39:54.830Z,19.57
2023-05-19T11:40:57.073Z,19.51
2023-05-19T11:41:59.139Z,19.59
2023-05-19T11:43:02.163Z,19.36
2023-05-19T11:44:03.929Z,19.44
2023-05-19T11:45:06.552Z,19.54
2023-05-19T11:46:12.844Z,19.46
2023-05-19T11:47:15.920Z,19.45
2023-05-19T11:48:21.602Z,19.58
2023-05-19T11:49:23.472Z,19.61
2023-05-19T11:50:26.001Z,19.87
2023-05-19T11:51:27.875Z,20.10
2023-05-19T11:52:29.790Z,20.32
2023-05-19T11:53:33.374Z,20.54
2023-05-19T11:54:37.459Z,20.79
2023-05-19T11:55:46.954Z,21.11
2023-05-19T11:56:49.012Z,21.42
2023-05-19T11:58:05.478Z,21.64
2023-05-19T11:59:08.483Z,21.89
2023-05-19T12:00:12.612Z,22.09
2023-05-19T12:01:14.520Z,22.33
2023-05-19T12:02:19.492Z,22.49
2023-05-19T12:03:23.035Z,22.75
2023-05-19T12:04:24.954Z,23.04
2023-05-19T12:05:28.439Z,23.27
2023-05-19T12:06:30.385Z,23.39
2023-05-19T12:07:32.172Z,23.52
2023-05-19T12:08:35.617Z,23.77
2023-05-19T12:09:37.446Z,23.96
2023-05-19T12:10:40.661Z,24.22
2023-05-19T12:11:42.472Z,24.48
2023-05-19T12:12:45.376Z,24.70
2023-05-19T12:13:51.073Z,24.93
2023-05-19T12:14:53.765Z,25.11
2023-05-19T12:16:00.023Z,25.32
2023-05-19T12:17:21.344Z,25.60
2023-05-19T12:18:23.160Z,25.84
2023-05-19T12:19:26.132Z,26.04
2023-05-19T12:20:32.011Z,26.18
2023-05-19T12:21:34.547Z,26.37
2023-05-19T12:22:37.069Z,26.48
2023-05-19T12:23:39.333Z,26.52
2023-05-19T12:24:43.119Z,26.71
2023-05-19T12:25:46.589Z,26.92
2023-05-19T12:26:50.426Z,27.13
2023-05-19T12:27:56.164Z,27.28
2023-05-19T12:28:59.000Z,27.21
2023-05-19T12:30:00.761Z,26.88
2023-05-19T12:31:02.974Z,26.40
2023-05-19T12:32:04.997Z,26.32
2023-05-19T12:33:08.704Z,26.43
2023-05-19T12:34:13.327Z,26.62
2023-05-19T12:35:15.964Z,26.74
2023-05-19T12:36:18.485Z,26.85
2023-05-19T12:37:20.275Z,26.99
2023-05-19T12:38:23.002Z,27.23
2023-05-19T12:39:24.933Z,27.39
2023-05-19T12:40:30.426Z,27.54
2023-05-19T12:41:32.377Z,27.65
2023-05-19T12:42:35.484Z,27.85
2023-05-19T12:43:37.928Z,27.79
2023-05-19T12:44:50.129Z,27.62
2023-05-19T12:45:52.563Z,27.63
2023-05-19T12:46:54.498Z,27.69
2023-05-19T12:47:56.847Z,27.62
2023-05-19T12:49:01.584Z,27.70
2023-05-19T12:50:08.821Z,27.77
2023-05-19T12:51:20.284Z,27.93
2023-05-19T12:52:23.481Z,28.13
2023-05-19T12:53:27.345Z,28.33
2023-05-19T12:54:34.232Z,28.50
2023-05-19T12:55:43.677Z,28.55
2023-05-19T12:56:52.161Z,28.60
2023-05-19T12:57:57.371Z,28.72
2023-05-19T12:59:01.893Z,28.88
2023-05-19T13:00:22.832Z,28.97
2023-05-19T13:01:24.789Z,29.19
2023-05-19T13:02:26.784Z,29.25
2023-05-19T13:03:28.822Z,29.52
2023-05-19T13:04:30.849Z,29.65
2023-05-19T13:05:35.240Z,29.76
2023-05-19T13:06:37.015Z,29.93
2023-05-19T13:07:38.814Z,29.99
2023-05-19T13:08:44.253Z,30.19
2023-05-19T13:09:46.053Z,30.33
2023-05-19T13:10:49.296Z,30.46
2023-05-19T13:11:52.275Z,30.57
2023-05-19T13:12:58.867Z,30.74
2023-05-19T13:14:00.638Z,30.87
2023-05-19T13:15:02.390Z,30.93
2023-05-19T13:16:04.771Z,30.94
2023-05-19T13:17:06.637Z,31.00
2023-05-19T13:18:10.355Z,31.04
2023-05-19T13:19:25.324Z,31.07
2023-05-19T13:20:28.762Z,30.93
2023-05-19T13:21:30.592Z,30.95
2023-05-19T13:22:32.338Z,30.98
2023-05-19T13:23:34.978Z,31.07
2023-05-19T13:24:36.849Z,31.14
2023-05-19T13:25:39.034Z,31.20
2023-05-19T13:26:41.738Z,31.09
2023-05-19T13:27:46.026Z,31.12
2023-05-19T13:28:48.044Z,31.03
2023-05-19T13:29:49.805Z,31.04
2023-05-19T13:30:52.285Z,30.94
2023-05-19T13:31:54.138Z,30.97
2023-05-19T13:32:56.108Z,30.94
2023-05-19T13:33:57.897Z,30.89
2023-05-19T13:35:01.933Z,30.85
2023-05-19T13:36:03.886Z,30.81
2023-05-19T13:37:07.020Z,30.87
2023-05-19T13:38:10.645Z,30.88
2023-05-19T13:39:15.726Z,30.95
2023-05-19T13:40:17.824Z,30.99
2023-05-19T13:41:26.347Z,31.07
2023-05-19T13:42:28.304Z,31.04
2023-05-19T13:43:30.022Z,31.10
2023-05-19T13:44:33.585Z,31.15
2023-05-19T13:45:35.513Z,31.22
2023-05-19T13:47:45.651Z,31.01